Time;durP1;ratioP1;P1;durP2;ratioP2;P2;SDS_P1;SDS_P2;PMS_P1;PMS_P2;Temp;Humidity;BMP_temperature;BMP_pressure;BME280_temperature;BME280_humidity;BME280_pressure;Samples;Min_cycle;Max_cycle;Signal;HPM_P1;HPM_P2
2022/05/27 00:01:50;;;;;;;21.95;6.05;;;14.30;99.90;;;;;;5004633;28;20394;-77
2022/05/27 00:04:16;;;;;;;23.55;5.95;;;14.30;99.90;;;;;;5000515;28;20389;-76
2022/05/27 00:06:42;;;;;;;22.65;6.00;;;14.30;99.90;;;;;;5004344;28;20042;-79
2022/05/27 00:09:07;;;;;;;27.63;5.43;;;14.30;99.90;;;;;;5005602;28;20120;-78
2022/05/27 00:11:33;;;;;;;22.80;5.88;;;14.30;99.90;;;;;;5005520;28;20463;-80
2022/05/27 00:13:59;;;;;;;18.75;5.85;;;14.20;99.90;;;;;;5006228;28;21749;-77
2022/05/27 00:16:25;;;;;;;22.45;6.05;;;14.20;99.90;;;;;;5008232;28;20551;-79
2022/05/27 00:18:50;;;;;;;20.75;5.65;;;14.20;99.90;;;;;;5010262;28;20120;-80
2022/05/27 00:21:16;;;;;;;25.27;6.22;;;14.20;99.90;;;;;;5010433;28;20042;-80
2022/05/27 00:23:42;;;;;;;20.58;5.00;;;14.10;99.90;;;;;;5010031;28;20070;-79
2022/05/27 00:26:07;;;;;;;25.65;4.88;;;14.10;99.90;;;;;;5010105;28;20096;-79
2022/05/27 00:28:33;;;;;;;21.70;4.32;;;14.00;99.90;;;;;;5010087;28;20041;-81
2022/05/27 00:30:58;;;;;;;16.77;4.30;;;14.00;99.90;;;;;;5009910;28;20069;-80
2022/05/27 00:33:24;;;;;;;15.27;3.75;;;14.00;99.90;;;;;;5010008;28;20133;-80
2022/05/27 00:35:50;;;;;;;14.93;4.13;;;13.90;99.90;;;;;;5009219;28;20451;-81
2022/05/27 00:38:16;;;;;;;18.33;4.25;;;13.90;99.90;;;;;;5010105;28;20030;-80
2022/05/27 00:40:45;;;;;;;16.70;4.40;;;13.90;99.90;;;;;;5010672;28;20087;-80
2022/05/27 00:43:12;;;;;;;14.60;4.70;;;13.80;99.90;;;;;;5010427;28;20417;-79
2022/05/27 00:45:41;;;;;;;15.70;4.40;;;13.80;99.90;;;;;;5009232;28;20053;-80
2022/05/27 00:48:13;;;;;;;15.02;4.05;;;13.70;99.90;;;;;;4994504;28;20472;-79
2022/05/27 00:50:42;;;;;;;17.17;3.75;;;13.70;99.90;;;;;;5007596;28;20042;-79
2022/05/27 00:53:10;;;;;;;15.32;4.18;;;13.60;99.90;;;;;;4993381;28;20100;-80
2022/05/27 00:55:43;;;;;;;18.17;4.00;;;13.60;99.90;;;;;;5007631;28;20038;-81
2022/05/27 00:58:17;;;;;;;12.85;3.78;;;13.50;99.90;;;;;;5009568;28;20081;-78
2022/05/27 01:00:43;;;;;;;16.48;3.80;;;13.50;99.90;;;;;;4986594;28;20057;-80
2022/05/27 01:03:12;;;;;;;18.05;3.55;;;13.40;99.90;;;;;;5008790;28;20037;-79
2022/05/27 01:05:40;;;;;;;18.08;3.47;;;13.30;99.90;;;;;;5005342;28;20037;-79
2022/05/27 01:08:08;;;;;;;16.73;3.42;;;13.30;99.90;;;;;;4993652;28;20104;-80
2022/05/27 01:11:08;;;;;;;15.18;3.85;;;13.30;99.90;;;;;;4998392;28;20041;-80
2022/05/27 01:13:39;;;;;;;19.92;4.13;;;13.20;99.90;;;;;;5010062;28;20052;-79
2022/05/27 01:16:15;;;;;;;18.65;4.13;;;13.20;99.90;;;;;;5004321;28;20050;-78
2022/05/27 01:22:38;;;;;;;14.57;4.32;;;13.10;99.90;;;;;;5007398;28;20099;-80
2022/05/27 01:25:29;;;;;;;18.30;3.75;;;13.10;99.90;;;;;;5009568;28;20052;-78
2022/05/27 01:28:20;;;;;;;15.02;3.70;;;13.10;99.90;;;;;;4993784;28;20176;-80
2022/05/27 01:31:16;;;;;;;14.10;3.53;;;13.00;99.90;;;;;;5028210;28;20053;-80
2022/05/27 01:33:53;;;;;;;15.23;4.32;;;13.00;99.90;;;;;;5005911;28;20128;-79
2022/05/27 01:36:32;;;;;;;13.85;3.50;;;13.00;99.90;;;;;;4992205;28;20543;-78
2022/05/27 01:39:16;;;;;;;16.92;4.32;;;12.90;99.90;;;;;;5016626;28;20042;-78
2022/05/27 01:42:01;;;;;;;17.88;4.65;;;12.90;99.90;;;;;;5002361;28;20041;-79
2022/05/27 01:45:03;;;;;;;14.75;3.90;;;12.80;99.90;;;;;;5004142;28;20446;-80
2022/05/27 01:47:49;;;;;;;10.85;3.58;;;12.80;99.90;;;;;;5009480;28;20038;-78
2022/05/27 01:50:26;;;;;;;17.83;4.22;;;12.70;99.90;;;;;;5007114;28;20065;-80
2022/05/27 01:53:03;;;;;;;12.05;3.75;;;12.70;99.90;;;;;;5008558;28;20512;-79
2022/05/27 01:55:36;;;;;;;18.17;3.92;;;12.60;99.90;;;;;;4993020;28;20049;-78
2022/05/27 01:58:17;;;;;;;16.05;4.13;;;12.60;99.90;;;;;;5009557;28;20070;-80
2022/05/27 02:00:44;;;;;;;20.15;4.65;;;12.60;99.90;;;;;;5008622;28;20033;-79
2022/05/27 02:03:24;;;;;;;19.27;3.55;;;12.50;99.90;;;;;;5012039;28;20352;-79
2022/05/27 02:06:00;;;;;;;16.20;3.78;;;12.50;99.90;;;;;;5010514;28;20499;-79
2022/05/27 02:08:51;;;;;;;17.20;3.75;;;12.40;99.90;;;;;;5013048;28;20041;-79
2022/05/27 02:11:20;;;;;;;18.85;4.10;;;12.40;99.90;;;;;;4993064;28;20092;-79
2022/05/27 02:13:51;;;;;;;14.98;2.90;;;12.30;99.90;;;;;;5008129;28;20038;-79
2022/05/27 02:16:26;;;;;;;13.45;2.97;;;12.30;99.90;;;;;;5012127;28;20054;-79
2022/05/27 02:18:56;;;;;;;13.23;3.15;;;12.30;99.90;;;;;;5011013;28;20073;-79
2022/05/27 02:21:32;;;;;;;16.10;3.08;;;12.30;99.90;;;;;;5013373;28;20577;-79
2022/05/27 02:24:08;;;;;;;16.05;3.08;;;12.20;99.90;;;;;;5010147;28;20069;-79
2022/05/27 02:26:39;;;;;;;15.82;2.97;;;12.30;99.90;;;;;;5010195;28;20062;-78
2022/05/27 02:29:12;;;;;;;12.60;2.72;;;12.20;99.90;;;;;;5006484;28;20385;-79
2022/05/27 02:31:43;;;;;;;12.20;2.90;;;12.20;99.90;;;;;;5002529;28;20038;-79
2022/05/27 02:37:18;;;;;;;15.13;2.88;;;12.20;99.90;;;;;;5005406;28;20054;-79
2022/05/27 02:39:44;;;;;;;12.95;3.10;;;12.10;99.90;;;;;;4995953;28;20045;-79
2022/05/27 02:42:17;;;;;;;15.20;2.88;;;12.10;99.90;;;;;;5010851;28;20416;-78
2022/05/27 02:44:53;;;;;;;15.60;3.10;;;12.10;99.90;;;;;;5011004;28;20034;-79
2022/05/27 02:47:37;;;;;;;10.77;2.30;;;12.10;99.90;;;;;;5008374;28;20045;-79
2022/05/27 02:50:06;;;;;;;13.50;2.47;;;12.10;99.90;;;;;;5004276;28;20038;-79
2022/05/27 02:52:56;;;;;;;15.35;2.53;;;12.10;99.90;;;;;;5005120;28;20073;-79
2022/05/27 02:56:08;;;;;;;12.25;2.65;;;12.10;99.90;;;;;;5004918;28;20056;-79
2022/05/27 02:58:34;;;;;;;9.77;2.72;;;12.10;99.90;;;;;;5006783;28;20042;-77
2022/05/27 03:01:00;;;;;;;9.93;2.45;;;12.00;99.90;;;;;;4989006;28;20068;-79
2022/05/27 03:03:26;;;;;;;10.90;2.63;;;12.00;99.90;;;;;;5010413;28;20109;-79
2022/05/27 03:06:16;;;;;;;12.90;2.85;;;11.90;99.90;;;;;;5005662;28;20056;-79
2022/05/27 03:09:09;;;;;;;8.05;2.70;;;11.90;99.90;;;;;;4991301;28;20050;-79
2022/05/27 03:12:06;;;;;;;11.55;2.65;;;11.90;99.90;;;;;;4990899;28;20046;-79
2022/05/27 03:14:56;;;;;;;10.60;2.55;;;11.80;99.90;;;;;;4990166;28;20557;-79
2022/05/27 03:18:00;;;;;;;16.25;2.53;;;11.80;99.90;;;;;;5006548;28;20503;-80
2022/05/27 03:20:42;;;;;;;14.52;2.97;;;11.70;99.90;;;;;;5017291;28;20077;-79
2022/05/27 03:23:08;;;;;;;12.57;2.70;;;11.70;99.90;;;;;;5009072;28;20069;-79
2022/05/27 03:25:38;;;;;;;13.98;2.80;;;11.70;99.90;;;;;;4987807;28;20066;-78
2022/05/27 03:28:32;;;;;;;14.52;3.25;;;11.70;99.90;;;;;;5005059;28;20029;-79
2022/05/27 03:31:05;;;;;;;17.03;3.63;;;11.70;99.90;;;;;;5007071;28;20046;-76
2022/05/27 03:33:56;;;;;;;11.18;3.00;;;11.60;99.90;;;;;;5003910;28;20046;-79
2022/05/27 03:36:34;;;;;;;12.88;3.15;;;11.60;99.90;;;;;;5004857;28;20108;-77
2022/05/27 03:39:21;;;;;;;13.15;2.92;;;11.60;99.90;;;;;;4989081;28;20033;-79
2022/05/27 03:42:03;;;;;;;10.73;2.65;;;11.60;99.90;;;;;;5005700;28;20041;-79
2022/05/27 03:44:29;;;;;;;13.43;2.80;;;11.60;99.90;;;;;;5005800;28;20124;-79
2022/05/27 03:46:57;;;;;;;12.95;2.95;;;11.60;99.90;;;;;;5006510;28;20045;-79
2022/05/27 03:49:23;;;;;;;13.10;2.90;;;11.60;99.90;;;;;;5005932;28;20034;-79
2022/05/27 03:52:07;;;;;;;12.52;2.80;;;11.60;99.90;;;;;;5021120;28;20135;-80
2022/05/27 03:54:33;;;;;;;13.60;3.23;;;11.60;99.90;;;;;;5004965;28;20061;-77
2022/05/27 03:56:59;;;;;;;11.98;2.80;;;11.60;99.90;;;;;;5020206;28;20053;-79
2022/05/27 03:59:24;;;;;;;10.57;2.53;;;11.60;99.90;;;;;;5004754;28;20037;-79
2022/05/27 04:01:53;;;;;;;14.23;2.50;;;11.70;99.90;;;;;;5006922;28;20103;-79
2022/05/27 04:04:24;;;;;;;10.73;2.45;;;11.80;99.90;;;;;;5005094;28;20041;-79
2022/05/27 04:06:50;;;;;;;12.88;2.70;;;11.80;99.90;;;;;;5005843;28;20451;-80
2022/05/27 04:09:17;;;;;;;11.38;2.53;;;11.80;99.90;;;;;;4990401;28;20045;-79
2022/05/27 04:11:43;;;;;;;15.25;2.75;;;11.90;99.90;;;;;;5007141;28;20040;-79
2022/05/27 04:14:09;;;;;;;15.15;2.72;;;11.90;99.90;;;;;;5005661;28;20046;-79
2022/05/27 04:16:35;;;;;;;13.55;2.60;;;11.90;99.90;;;;;;4991242;28;20042;-79
2022/05/27 04:19:01;;;;;;;11.07;2.90;;;12.00;99.90;;;;;;5006896;28;20507;-78
2022/05/27 04:21:27;;;;;;;11.43;2.58;;;11.90;99.90;;;;;;5004393;28;20090;-79
2022/05/27 04:23:52;;;;;;;12.55;2.50;;;12.00;99.90;;;;;;5006109;28;20034;-77
2022/05/27 04:26:18;;;;;;;14.68;2.95;;;11.90;99.90;;;;;;5004066;28;20070;-79
2022/05/27 04:28:44;;;;;;;12.82;2.80;;;11.90;99.90;;;;;;4990393;28;20053;-79
2022/05/27 04:31:10;;;;;;;11.32;2.60;;;11.90;99.90;;;;;;5004088;28;20049;-79
2022/05/27 04:33:36;;;;;;;15.25;3.28;;;12.00;99.90;;;;;;5008191;28;20045;-79
2022/05/27 04:36:02;;;;;;;12.02;2.90;;;12.00;99.90;;;;;;5004236;28;20504;-79
2022/05/27 04:38:29;;;;;;;15.75;3.10;;;12.00;99.90;;;;;;5003186;28;20519;-80
2022/05/27 04:40:54;;;;;;;12.95;2.90;;;12.10;99.90;;;;;;4989703;28;20034;-79
2022/05/27 04:43:20;;;;;;;11.40;3.03;;;12.10;99.90;;;;;;5005429;28;20044;-80
2022/05/27 04:45:46;;;;;;;10.15;2.63;;;12.20;99.90;;;;;;5005204;28;20527;-80
2022/05/27 04:48:13;;;;;;;11.57;2.72;;;12.30;99.90;;;;;;5006675;28;20503;-78
2022/05/27 04:50:39;;;;;;;16.27;3.20;;;12.30;99.90;;;;;;5007697;28;20120;-80
2022/05/27 04:53:05;;;;;;;12.75;3.17;;;12.40;99.90;;;;;;5008646;28;20034;-80
2022/05/27 04:55:32;;;;;;;14.40;2.85;;;12.40;99.90;;;;;;5007082;28;20110;-79
2022/05/27 04:57:59;;;;;;;13.07;2.85;;;12.40;99.90;;;;;;5024843;28;20046;-79
2022/05/27 05:00:38;;;;;;;12.75;2.92;;;12.40;99.90;;;;;;5005243;28;20605;-79
2022/05/27 05:03:03;;;;;;;9.75;2.53;;;12.30;99.90;;;;;;5008207;28;20069;-80
2022/05/27 05:05:31;;;;;;;11.45;2.65;;;12.30;99.90;;;;;;5008965;28;20066;-80
2022/05/27 05:08:09;;;;;;;14.10;2.58;;;12.20;99.90;;;;;;4997352;28;20072;-79
2022/05/27 05:10:35;;;;;;;12.45;2.80;;;12.20;99.90;;;;;;4996295;28;20038;-80
2022/05/27 05:13:02;;;;;;;14.88;2.80;;;12.20;99.90;;;;;;4997898;28;20088;-80
2022/05/27 05:15:28;;;;;;;20.45;2.80;;;12.20;99.90;;;;;;5008634;28;20053;-80
2022/05/27 05:17:54;;;;;;;11.70;2.63;;;12.20;99.90;;;;;;5011318;28;20026;-79
2022/05/27 05:20:25;;;;;;;13.82;2.70;;;12.10;99.90;;;;;;5007925;28;20038;-80
2022/05/27 05:22:50;;;;;;;15.07;2.70;;;12.20;99.90;;;;;;5008848;28;20641;-80
2022/05/27 05:25:16;;;;;;;11.45;2.63;;;12.20;99.90;;;;;;5006260;28;20091;-80
2022/05/27 05:27:42;;;;;;;12.20;2.58;;;12.20;99.90;;;;;;5010552;28;20129;-80
2022/05/27 05:30:11;;;;;;;21.33;3.10;;;12.30;99.90;;;;;;5008799;28;20045;-80
2022/05/27 05:32:37;;;;;;;11.95;2.75;;;12.30;99.90;;;;;;4996270;28;21744;-79
2022/05/27 05:35:04;;;;;;;13.20;3.10;;;12.30;99.90;;;;;;5007148;28;20037;-80
2022/05/27 05:37:30;;;;;;;10.35;2.65;;;12.40;99.90;;;;;;5005507;28;20065;-80
2022/05/27 05:39:55;;;;;;;16.23;2.67;;;12.40;99.90;;;;;;5014615;28;20131;-79
2022/05/27 05:42:21;;;;;;;14.23;2.88;;;12.50;99.90;;;;;;5014298;28;20038;-80
2022/05/27 05:44:46;;;;;;;17.58;3.00;;;12.40;99.90;;;;;;5009475;28;20504;-80
2022/05/27 05:47:14;;;;;;;12.73;2.72;;;12.40;99.90;;;;;;5002793;28;20127;-81
2022/05/27 05:49:39;;;;;;;14.18;2.92;;;12.50;99.90;;;;;;5007447;28;20452;-79
2022/05/27 05:52:05;;;;;;;14.82;3.03;;;12.50;99.90;;;;;;5007225;28;20119;-80
2022/05/27 05:54:31;;;;;;;17.08;3.88;;;12.60;99.90;;;;;;5007598;28;20045;-78
2022/05/27 05:57:02;;;;;;;14.63;2.70;;;12.70;99.90;;;;;;4990523;28;20049;-81
2022/05/27 05:59:32;;;;;;;12.93;2.70;;;12.80;99.90;;;;;;4995461;28;20026;-80
2022/05/27 06:01:59;;;;;;;12.15;2.67;;;12.90;99.90;;;;;;4992271;28;20427;-80
2022/05/27 06:04:24;;;;;;;16.60;3.08;;;12.90;99.90;;;;;;5009277;28;20377;-79
2022/05/27 06:06:50;;;;;;;14.57;2.92;;;12.90;99.90;;;;;;5006746;28;20056;-80
2022/05/27 06:09:17;;;;;;;14.90;2.75;;;12.80;99.90;;;;;;5008131;28;20124;-81
2022/05/27 06:11:43;;;;;;;14.88;3.15;;;12.70;99.90;;;;;;5009128;28;20037;-82
2022/05/27 06:14:08;;;;;;;13.73;2.80;;;12.70;99.90;;;;;;5008923;28;20095;-82
2022/05/27 06:16:34;;;;;;;18.77;2.63;;;12.90;99.90;;;;;;5000357;28;20034;-82
2022/05/27 06:18:59;;;;;;;15.07;2.97;;;13.00;99.90;;;;;;5004257;28;20041;-82
2022/05/27 06:21:26;;;;;;;13.32;3.15;;;13.00;99.90;;;;;;5004848;28;20046;-82
2022/05/27 06:23:52;;;;;;;11.18;3.10;;;13.10;99.90;;;;;;5003298;28;20033;-81
2022/05/27 06:26:17;;;;;;;11.40;2.97;;;13.20;99.90;;;;;;5002768;28;20041;-82
2022/05/27 06:34:25;;;;;;;12.95;2.45;;;13.50;99.90;;;;;;5004737;28;19971;-82
2022/05/27 06:37:06;;;;;;;11.98;2.65;;;13.50;99.90;;;;;;5004149;28;20319;-82
2022/05/27 06:39:34;;;;;;;13.27;2.38;;;13.60;99.90;;;;;;5007645;28;20492;-84
2022/05/27 06:42:00;;;;;;;13.82;2.50;;;13.60;99.90;;;;;;5006022;28;20037;-84
2022/05/27 06:44:26;;;;;;;16.23;2.45;;;13.60;99.90;;;;;;5008014;28;20132;-84
2022/05/27 06:46:52;;;;;;;12.93;2.60;;;13.60;99.90;;;;;;4992441;28;20504;-83
2022/05/27 06:49:18;;;;;;;14.85;2.63;;;13.70;99.90;;;;;;5008100;28;21753;-83
2022/05/27 06:51:44;;;;;;;12.45;2.90;;;13.80;99.90;;;;;;4985053;28;20421;-84
2022/05/27 06:54:11;;;;;;;12.77;2.78;;;13.90;99.90;;;;;;5007609;28;20052;-84
2022/05/27 06:56:38;;;;;;;11.05;2.47;;;13.80;99.90;;;;;;5004480;28;20124;-82
2022/05/27 06:59:05;;;;;;;13.80;2.72;;;13.60;99.90;;;;;;5006318;28;20084;-84
2022/05/27 07:01:30;;;;;;;14.00;2.50;;;13.50;99.90;;;;;;5006966;28;20034;-84
2022/05/27 07:03:57;;;;;;;12.85;2.70;;;13.60;99.90;;;;;;5006747;28;20037;-83
2022/05/27 07:06:25;;;;;;;15.32;3.05;;;13.60;99.90;;;;;;4991611;28;20104;-85
2022/05/27 07:08:51;;;;;;;11.38;2.67;;;13.70;99.90;;;;;;5003769;28;20097;-83
2022/05/27 07:11:16;;;;;;;10.30;2.65;;;13.60;99.90;;;;;;5005112;28;20423;-82
2022/05/27 07:13:42;;;;;;;13.18;2.65;;;13.40;99.90;;;;;;5006529;28;20073;-83
2022/05/27 07:16:07;;;;;;;14.20;2.60;;;13.30;99.90;;;;;;5006433;28;20527;-85
2022/05/27 07:18:34;;;;;;;11.45;2.58;;;13.20;99.90;;;;;;5005079;28;20586;-85
2022/05/27 07:21:04;;;;;;;7.70;2.30;;;13.10;99.90;;;;;;5006972;28;20034;-85
2022/05/27 07:23:30;;;;;;;14.60;2.75;;;13.20;99.90;;;;;;4989349;28;20129;-84
2022/05/27 07:25:56;;;;;;;13.50;2.63;;;13.40;99.90;;;;;;5006270;28;20125;-84
2022/05/27 07:28:22;;;;;;;14.93;3.20;;;13.60;99.90;;;;;;4989383;28;20099;-84
2022/05/27 07:30:47;;;;;;;12.65;3.05;;;13.90;99.90;;;;;;4991182;28;20038;-84
2022/05/27 07:33:13;;;;;;;12.82;2.92;;;14.20;99.90;;;;;;5004132;28;20463;-85
2022/05/27 07:35:38;;;;;;;10.32;2.03;;;14.30;99.90;;;;;;5006948;28;20045;-84
2022/05/27 07:38:04;;;;;;;14.23;2.92;;;14.30;99.90;;;;;;5005567;28;20396;-84
2022/05/27 07:40:30;;;;;;;13.57;3.22;;;14.50;99.90;;;;;;5008379;28;20063;-85
2022/05/27 07:42:55;;;;;;;13.85;2.78;;;14.50;99.90;;;;;;5006200;28;20034;-86
2022/05/27 07:45:26;;;;;;;17.50;3.40;;;14.60;99.90;;;;;;4989646;28;20040;-85
2022/05/27 07:47:52;;;;;;;11.85;2.78;;;14.60;99.90;;;;;;5002833;28;20432;-86
2022/05/27 07:50:20;;;;;;;12.02;2.42;;;14.30;99.90;;;;;;5007626;28;20080;-84
2022/05/27 07:52:48;;;;;;;12.65;2.70;;;14.40;99.90;;;;;;5005455;28;20042;-87
2022/05/27 07:55:15;;;;;;;14.18;3.05;;;14.20;99.90;;;;;;5004222;28;20038;-87
2022/05/27 07:57:43;;;;;;;15.07;2.40;;;14.30;99.90;;;;;;4992767;28;20103;-86
2022/05/27 08:00:15;;;;;;;15.13;2.85;;;14.50;99.90;;;;;;4992400;28;20511;-86
2022/05/27 08:02:41;;;;;;;13.27;2.78;;;14.70;99.90;;;;;;5005329;28;20046;-85
2022/05/27 08:05:10;;;;;;;12.77;2.75;;;14.90;99.90;;;;;;5003842;28;20061;-87
2022/05/27 08:07:36;;;;;;;18.70;3.58;;;14.80;99.90;;;;;;4990485;28;20053;-87
2022/05/27 08:10:01;;;;;;;12.63;2.95;;;14.70;99.90;;;;;;5007414;28;20518;-86
2022/05/27 08:12:27;;;;;;;16.25;2.88;;;14.50;99.90;;;;;;5003709;28;20075;-86
2022/05/27 08:14:52;;;;;;;15.18;2.83;;;14.60;99.90;;;;;;4994208;28;20064;-86
2022/05/27 08:17:18;;;;;;;15.35;3.17;;;14.80;99.90;;;;;;5010733;28;20065;-86
2022/05/27 08:19:43;;;;;;;13.85;3.17;;;14.70;99.90;;;;;;5009426;28;20037;-84
2022/05/27 08:22:09;;;;;;;14.40;2.80;;;14.40;99.90;;;;;;5005753;28;20046;-84
2022/05/27 08:24:34;;;;;;;16.70;3.15;;;14.00;99.90;;;;;;5008594;28;20044;-84
2022/05/27 08:27:01;;;;;;;9.32;2.65;;;14.00;99.90;;;;;;5012424;28;20121;-85
2022/05/27 08:29:28;;;;;;;11.93;2.60;;;14.20;99.90;;;;;;5015096;28;20045;-86
2022/05/27 08:31:54;;;;;;;13.75;3.05;;;14.40;99.90;;;;;;5017223;28;20041;-86
2022/05/27 08:39:48;;;;;;;;;;;15.20;99.90;;;;;;5017497;28;20045;-84
2022/05/27 08:42:33;;;;;;;11.50;2.22;;;15.10;99.90;;;;;;5017297;28;20343;-86
2022/05/27 08:45:37;;;;;;;13.80;2.53;;;14.90;99.90;;;;;;5000678;28;20450;-86
2022/05/27 08:48:10;;;;;;;12.18;2.42;;;14.90;99.90;;;;;;5017938;28;20403;-85
2022/05/27 08:50:57;;;;;;;12.52;2.88;;;14.80;99.90;;;;;;5017329;28;20069;-86
2022/05/27 08:53:30;;;;;;;12.55;2.63;;;14.80;99.90;;;;;;5015147;28;20073;-84
2022/05/27 09:01:51;;;;;;;14.75;2.75;;;14.80;99.90;;;;;;5003812;28;20081;-85
2022/05/27 09:05:06;;;;;;;15.88;2.63;;;14.60;99.90;;;;;;5011272;28;20038;-87
2022/05/27 09:07:40;;;;;;;12.73;2.80;;;14.70;99.90;;;;;;5005207;28;20056;-83
2022/05/27 09:10:12;;;;;;;16.08;2.85;;;14.50;99.90;;;;;;5010197;28;20427;-83
2022/05/27 09:12:40;;;;;;;15.43;2.58;;;14.60;99.90;;;;;;4984824;28;20025;-85
2022/05/27 09:15:32;;;;;;;9.95;2.42;;;14.60;99.90;;;;;;5009890;28;20042;-83
2022/05/27 09:18:23;;;;;;;13.25;2.50;;;14.50;99.90;;;;;;5012997;28;20120;-84
2022/05/27 09:20:53;;;;;;;14.30;2.83;;;14.40;99.90;;;;;;4999655;28;20124;-86
2022/05/27 09:23:50;;;;;;;11.15;2.25;;;14.50;99.90;;;;;;5015303;28;20041;-82
2022/05/27 09:26:30;;;;;;;16.00;3.15;;;14.70;99.90;;;;;;5029138;28;20045;-87
2022/05/27 09:29:19;;;;;;;14.20;2.33;;;14.80;99.90;;;;;;5007529;28;20042;-84
2022/05/27 09:32:13;;;;;;;16.85;3.53;;;14.70;99.90;;;;;;4990782;28;20042;-85
2022/05/27 09:34:42;;;;;;;13.60;2.20;;;14.70;99.90;;;;;;4996364;28;20508;-81
2022/05/27 09:37:13;;;;;;;11.82;2.63;;;14.60;99.90;;;;;;4993290;28;20042;-85
2022/05/27 09:39:38;;;;;;;11.63;2.50;;;14.50;99.90;;;;;;5011394;28;20069;-81
2022/05/27 09:42:13;;;;;;;14.20;2.40;;;14.70;99.90;;;;;;5012059;28;20061;-85
2022/05/27 09:44:55;;;;;;;14.50;2.78;;;14.80;99.90;;;;;;4996259;28;20038;-84
2022/05/27 09:47:23;;;;;;;16.88;2.75;;;15.00;99.90;;;;;;5001163;28;20046;-85
2022/05/27 09:49:57;;;;;;;12.20;3.05;;;14.90;99.90;;;;;;5011777;28;20041;-85
2022/05/27 09:52:24;;;;;;;8.82;2.33;;;14.80;99.90;;;;;;5009719;28;20108;-83
2022/05/27 09:54:55;;;;;;;9.63;2.33;;;14.90;99.90;;;;;;5011865;28;20200;-83
2022/05/27 09:57:26;;;;;;;14.07;2.63;;;14.80;99.90;;;;;;4984873;28;20427;-84
2022/05/27 09:59:57;;;;;;;13.20;2.40;;;14.70;99.90;;;;;;5012764;28;20057;-86
2022/05/27 10:02:26;;;;;;;11.50;2.42;;;14.90;99.90;;;;;;4995477;28;20054;-86
2022/05/27 10:05:00;;;;;;;12.95;2.35;;;14.80;99.90;;;;;;5000531;28;20042;-85
2022/05/27 10:07:57;;;;;;;13.38;2.60;;;14.70;99.90;;;;;;4994466;28;20380;-86
2022/05/27 10:10:35;;;;;;;12.13;2.53;;;14.80;99.90;;;;;;5008893;28;20034;-85
2022/05/27 10:13:28;;;;;;;11.93;3.05;;;15.00;99.90;;;;;;5008970;28;20523;-80
2022/05/27 10:16:10;;;;;;;15.07;2.70;;;15.10;99.90;;;;;;5022518;28;20505;-83
2022/05/27 10:18:36;;;;;;;9.70;2.47;;;15.00;99.90;;;;;;5025466;28;20666;-82
2022/05/27 10:21:17;;;;;;;13.65;2.33;;;14.70;99.90;;;;;;5008435;28;20132;-85
2022/05/27 10:23:49;;;;;;;9.27;2.05;;;14.60;99.90;;;;;;5008546;28;20041;-84
2022/05/27 10:26:20;;;;;;;13.48;2.40;;;14.60;99.90;;;;;;5011545;28;20120;-86
2022/05/27 10:28:56;;;;;;;13.90;2.97;;;14.50;99.90;;;;;;5006381;28;20068;-84
2022/05/27 10:31:24;;;;;;;15.63;2.65;;;14.60;99.90;;;;;;4993083;28;20369;-86
2022/05/27 10:33:50;;;;;;;14.02;2.85;;;14.90;99.90;;;;;;4989289;28;20492;-87
2022/05/27 10:36:37;;;;;;;10.20;2.38;;;14.90;99.90;;;;;;4994706;28;20038;-88
2022/05/27 10:39:08;;;;;;;12.77;2.65;;;14.90;99.90;;;;;;4994791;28;20038;-86
2022/05/27 10:41:49;;;;;;;12.05;2.47;;;15.00;99.90;;;;;;5011807;28;20069;-83
2022/05/27 10:44:34;;;;;;;10.50;2.50;;;15.00;99.90;;;;;;5022051;28;20765;-81
2022/05/27 10:46:59;;;;;;;13.75;2.38;;;15.00;99.90;;;;;;5008447;28;20381;-87
2022/05/27 10:49:44;;;;;;;15.48;2.95;;;15.10;99.90;;;;;;5009081;28;20053;-87
2022/05/27 10:52:31;;;;;;;12.77;2.55;;;15.20;99.90;;;;;;5000700;28;20045;-84
2022/05/27 10:55:07;;;;;;;11.27;2.30;;;15.30;99.90;;;;;;4982105;28;20046;-84
2022/05/27 11:03:44;;;;;;;11.43;2.70;;;15.50;99.90;;;;;;5003774;28;20053;-85
2022/05/27 11:06:47;;;;;;;12.95;2.75;;;15.40;99.90;;;;;;5004857;28;20041;-84
2022/05/27 11:09:31;;;;;;;13.82;3.20;;;15.30;99.90;;;;;;5009962;28;20046;-84
2022/05/27 11:12:04;;;;;;;15.50;2.85;;;15.50;99.90;;;;;;4997384;28;20112;-85
2022/05/27 11:17:52;;;;;;;14.45;2.60;;;15.00;99.90;;;;;;4992034;28;20113;-87
2022/05/27 11:20:54;;;;;;;15.52;2.80;;;14.80;99.90;;;;;;4992541;28;20432;-86
2022/05/27 11:23:49;;;;;;;10.70;2.78;;;14.80;99.90;;;;;;4992324;28;20049;-85
2022/05/27 11:26:28;;;;;;;10.82;2.17;;;14.90;99.90;;;;;;4992001;28;20164;-84
2022/05/27 11:29:24;;;;;;;12.70;2.33;;;15.10;99.90;;;;;;4992065;28;20046;-85
2022/05/27 11:32:29;;;;;;;14.40;3.10;;;15.10;99.90;;;;;;4992255;28;20451;-86
2022/05/27 11:35:13;;;;;;;15.73;2.88;;;14.70;99.90;;;;;;4991312;28;20042;-85
2022/05/27 11:37:55;;;;;;;11.82;2.53;;;15.00;99.90;;;;;;5006318;28;20117;-85
2022/05/27 11:40:47;;;;;;;11.65;2.65;;;15.40;99.90;;;;;;4990240;28;20073;-87
2022/05/27 11:43:31;;;;;;;15.50;2.92;;;15.40;99.90;;;;;;5004342;28;20029;-83
2022/05/27 11:46:16;;;;;;;14.02;2.55;;;15.30;99.90;;;;;;4986087;28;20128;-86
2022/05/27 11:48:49;;;;;;;;;;;15.00;99.90;;;;;;5006068;28;20038;-84
2022/05/27 11:51:38;;;;;;;9.10;2.30;;;14.70;99.90;;;;;;5003120;28;19924;-86
2022/05/27 11:54:17;;;;;;;15.20;2.80;;;14.60;99.90;;;;;;4991854;28;20042;-87
2022/05/27 11:56:43;;;;;;;15.35;2.85;;;14.60;99.90;;;;;;5004971;28;20057;-86
2022/05/27 11:59:23;;;;;;;8.43;2.70;;;14.50;99.90;;;;;;5005800;28;20037;-86
2022/05/27 12:02:06;;;;;;;15.88;2.70;;;14.40;99.90;;;;;;5004850;28;20496;-87
2022/05/27 12:04:46;;;;;;;9.50;2.10;;;14.30;99.90;;;;;;5004961;28;20041;-85
2022/05/27 12:07:33;;;;;;;13.02;3.03;;;14.10;99.90;;;;;;5004162;28;21695;-87
2022/05/27 12:10:25;;;;;;;15.15;3.13;;;14.00;99.90;;;;;;4991092;28;20040;-87
2022/05/27 12:13:05;;;;;;;15.52;2.75;;;14.10;99.90;;;;;;5003510;28;20074;-85
2022/05/27 12:15:37;;;;;;;17.25;2.78;;;14.20;99.90;;;;;;5002649;28;20092;-83
2022/05/27 12:18:08;;;;;;;16.20;2.95;;;14.30;99.90;;;;;;5005492;28;20064;-86
2022/05/27 12:20:35;;;;;;;9.45;2.30;;;14.20;99.90;;;;;;5008166;28;20823;-86
2022/05/27 12:23:06;;;;;;;12.43;2.70;;;14.20;99.90;;;;;;5011273;28;20037;-81
2022/05/27 12:25:37;;;;;;;14.07;2.50;;;14.10;99.90;;;;;;5009486;28;20486;-86
2022/05/27 12:28:04;;;;;;;11.30;2.90;;;14.10;99.90;;;;;;4993416;28;20034;-84
2022/05/27 12:30:33;;;;;;;10.55;2.92;;;14.20;99.90;;;;;;5009066;28;20034;-85
2022/05/27 12:32:59;;;;;;;14.52;2.58;;;14.50;99.90;;;;;;5006423;28;20037;-83
2022/05/27 12:35:26;;;;;;;16.63;3.40;;;14.90;99.90;;;;;;5009141;28;20042;-87
2022/05/27 12:38:11;;;;;;;11.63;2.15;;;15.40;99.90;;;;;;5007662;28;20212;-86
2022/05/27 12:40:44;;;;;;;14.73;2.45;;;15.60;99.90;;;;;;4993512;28;20038;-85
2022/05/27 12:43:17;;;;;;;13.07;2.75;;;15.60;99.90;;;;;;5005024;28;20038;-83
2022/05/27 12:45:52;;;;;;;10.45;2.22;;;15.30;99.90;;;;;;4988069;28;20049;-86
2022/05/27 12:48:41;;;;;;;16.40;2.80;;;15.20;99.90;;;;;;5018100;28;20030;-85
2022/05/27 12:51:08;;;;;;;10.13;2.13;;;15.10;99.90;;;;;;5007839;28;20116;-85
2022/05/27 12:53:55;;;;;;;16.27;2.90;;;15.10;99.90;;;;;;5007759;28;20535;-86
2022/05/27 13:02:33;;;;;;;13.98;2.50;;;15.40;99.90;;;;;;5005159;28;20038;-87
2022/05/27 13:05:05;;;;;;;14.57;2.70;;;15.50;99.90;;;;;;4995139;28;20130;-86
2022/05/27 13:07:35;;;;;;;12.82;2.70;;;15.40;99.90;;;;;;5010333;28;20056;-84
2022/05/27 13:10:16;;;;;;;10.13;2.60;;;15.40;99.90;;;;;;4995113;28;20046;-86
2022/05/27 13:12:44;;;;;;;18.00;2.92;;;15.30;99.90;;;;;;4997494;28;20133;-83
2022/05/27 13:15:23;;;;;;;15.32;2.97;;;15.30;99.90;;;;;;5008465;28;20562;-83
2022/05/27 13:18:07;;;;;;;11.10;2.72;;;15.20;99.90;;;;;;5012597;28;20145;-85
2022/05/27 13:20:58;;;;;;;13.05;2.70;;;15.20;99.90;;;;;;5013717;28;20040;-89
2022/05/27 13:23:29;;;;;;;10.55;2.58;;;15.40;99.90;;;;;;5013636;28;20117;-84
2022/05/27 13:26:05;;;;;;;14.18;2.70;;;15.40;99.90;;;;;;5007233;28;20042;-82
2022/05/27 13:28:47;;;;;;;10.65;2.83;;;15.30;99.90;;;;;;5018732;28;20070;-86
2022/05/27 13:31:14;;;;;;;10.93;2.40;;;15.30;99.90;;;;;;5001565;28;20041;-85
2022/05/27 13:33:51;;;;;;;15.65;2.97;;;15.00;99.90;;;;;;5008297;28;20112;-86
2022/05/27 13:36:27;;;;;;;11.00;2.78;;;15.10;99.90;;;;;;4999758;28;20552;-83
2022/05/27 13:38:59;;;;;;;13.55;2.50;;;14.90;99.90;;;;;;4990322;28;20129;-85
2022/05/27 13:41:29;;;;;;;15.60;2.85;;;14.70;99.90;;;;;;5016629;28;20065;-83
2022/05/27 13:43:56;;;;;;;9.43;2.50;;;14.90;99.90;;;;;;5011190;28;20037;-84
2022/05/27 13:46:27;;;;;;;14.07;2.78;;;14.90;99.90;;;;;;5005311;28;20038;-82
2022/05/27 13:48:58;;;;;;;14.60;2.70;;;14.80;99.90;;;;;;4991254;28;20492;-84